createdAt,value
2018-02-14T16:11:58.373Z,6.99
2018-02-14T16:14:25.773Z,7.48
2018-02-14T16:16:53.171Z,7.67
2018-02-14T16:19:20.603Z,7.76
2018-02-14T16:21:47.985Z,7.76
2018-02-14T16:24:15.381Z,7.85
2018-02-14T16:26:42.813Z,7.86
2018-02-14T16:29:10.201Z,7.90
2018-02-14T16:31:38.553Z,7.93
2018-02-14T16:34:06.042Z,7.82
2018-02-14T16:36:33.426Z,7.52
2018-02-14T16:39:00.805Z,7.61
2018-02-14T16:41:28.225Z,7.51
2018-02-14T16:43:55.610Z,7.71
2018-02-14T16:46:23.029Z,7.43
2018-02-14T16:48:50.450Z,7.32
2018-02-14T16:51:17.877Z,7.32
2018-02-14T16:53:45.253Z,7.27
2018-02-14T16:56:12.678Z,7.28
2018-02-14T16:58:40.070Z,7.22
2018-02-14T17:01:07.478Z,7.23
2018-02-14T17:03:34.917Z,7.16
2018-02-14T17:06:02.531Z,7.35
2018-02-14T17:08:29.909Z,7.33
2018-02-14T17:10:57.421Z,7.30
2018-02-14T17:13:24.810Z,7.26
2018-02-14T17:15:52.196Z,7.33
2018-02-14T17:18:19.643Z,7.25
2018-02-14T17:20:47.033Z,7.31
2018-02-14T17:23:14.427Z,7.23
2018-02-14T17:25:41.850Z,7.30
2018-02-14T17:28:09.237Z,7.27
2018-02-14T17:30:36.618Z,7.41
2018-02-14T17:33:04.069Z,7.32
2018-02-14T17:35:31.449Z,7.36
2018-02-14T17:37:58.824Z,7.31
2018-02-14T17:40:26.269Z,7.38
2018-02-14T17:42:53.669Z,7.42
2018-02-14T17:45:21.067Z,7.58
2018-02-14T17:47:48.450Z,7.62
2018-02-14T17:50:15.889Z,7.65
2018-02-14T17:52:43.276Z,7.66
2018-02-14T17:55:10.659Z,7.42
2018-02-14T17:57:38.358Z,7.41
2018-02-14T18:00:05.906Z,7.57
2018-02-14T18:02:33.358Z,7.45
2018-02-14T18:05:00.771Z,7.53
2018-02-14T18:07:28.173Z,7.56
2018-02-14T18:09:55.570Z,7.57
2018-02-14T18:12:22.986Z,7.62
2018-02-14T18:14:50.430Z,7.60
2018-02-14T18:17:17.838Z,7.26
2018-02-14T18:19:45.213Z,7.31
2018-02-14T18:22:12.633Z,7.37
2018-02-14T18:24:40.295Z,7.32
2018-02-14T18:27:07.674Z,7.25
